sensor_id;sensor_type;location;lat;lon;timestamp;temperature;humidity
18191;DHT22;47004;51.366;12.348;2023-05-07T00:01:24;10.90;99.90
18191;DHT22;47004;51.366;12.348;2023-05-07T00:03:26;10.90;99.90
18191;DHT22;47004;51.366;12.348;2023-05-07T00:05:29;10.80;99.90
18191;DHT22;47004;51.366;12.348;2023-05-07T00:07:31;10.80;99.90
18191;DHT22;47004;51.366;12.348;2023-05-07T00:09:33;10.80;99.90
18191;DHT22;47004;51.366;12.348;2023-05-07T00:11:37;10.80;99.90
18191;DHT22;47004;51.366;12.348;2023-05-07T00:13:39;10.80;99.90
18191;DHT22;47004;51.366;12.348;2023-05-07T00:15:42;10.70;99.90
18191;DHT22;47004;51.366;12.348;2023-05-07T00:17:44;10.70;99.90
18191;DHT22;47004;51.366;12.348;2023-05-07T00:19:46;10.70;99.90
18191;DHT22;47004;51.366;12.348;2023-05-07T00:21:48;10.70;99.90
18191;DHT22;47004;51.366;12.348;2023-05-07T00:23:50;10.60;99.90
18191;DHT22;47004;51.366;12.348;2023-05-07T00:25:52;10.60;99.90
18191;DHT22;47004;51.366;12.348;2023-05-07T00:27:54;10.60;99.90
18191;DHT22;47004;51.366;12.348;2023-05-07T00:29:56;10.60;99.90
18191;DHT22;47004;51.366;12.348;2023-05-07T00:31:58;10.60;99.90
18191;DHT22;47004;51.366;12.348;2023-05-07T00:34:00;10.60;99.90
18191;DHT22;47004;51.366;12.348;2023-05-07T00:36:02;10.60;99.90
18191;DHT22;47004;51.366;12.348;2023-05-07T00:38:04;10.50;99.90
18191;DHT22;47004;51.366;12.348;2023-05-07T00:40:07;10.50;99.90
18191;DHT22;47004;51.366;12.348;2023-05-07T00:42:09;10.50;99.90
18191;DHT22;47004;51.366;12.348;2023-05-07T00:44:11;10.50;99.90
18191;DHT22;47004;51.366;12.348;2023-05-07T00:46:13;10.50;99.90
18191;DHT22;47004;51.366;12.348;2023-05-07T00:48:18;10.50;99.90
18191;DHT22;47004;51.366;12.348;2023-05-07T00:50:20;10.50;99.90
18191;DHT22;47004;51.366;12.348;2023-05-07T00:52:25;10.40;99.90
18191;DHT22;47004;51.366;12.348;2023-05-07T00:54:27;10.40;99.90
18191;DHT22;47004;51.366;12.348;2023-05-07T00:56:29;10.40;99.90
18191;DHT22;47004;51.366;12.348;2023-05-07T00:58:31;10.30;99.90
18191;DHT22;47004;51.366;12.348;2023-05-07T01:00:34;10.40;99.90
18191;DHT22;47004;51.366;12.348;2023-05-07T01:02:36;10.40;99.90
18191;DHT22;47004;51.366;12.348;2023-05-07T01:04:39;10.40;99.90
18191;DHT22;47004;51.366;12.348;2023-05-07T01:06:41;10.40;99.90
18191;DHT22;47004;51.366;12.348;2023-05-07T01:08:44;10.40;99.90
18191;DHT22;47004;51.366;12.348;2023-05-07T01:10:46;10.40;99.90
18191;DHT22;47004;51.366;12.348;2023-05-07T01:12:48;10.40;99.90
18191;DHT22;47004;51.366;12.348;2023-05-07T01:14:51;10.30;99.90
18191;DHT22;47004;51.366;12.348;2023-05-07T01:16:53;10.40;99.90
18191;DHT22;47004;51.366;12.348;2023-05-07T01:18:55;10.40;99.90
18191;DHT22;47004;51.366;12.348;2023-05-07T01:20:59;10.30;99.90
18191;DHT22;47004;51.366;12.348;2023-05-07T01:23:06;10.30;99.90
18191;DHT22;47004;51.366;12.348;2023-05-07T01:25:08;10.30;99.90
18191;DHT22;47004;51.366;12.348;2023-05-07T01:27:10;10.30;99.90
18191;DHT22;47004;51.366;12.348;2023-05-07T01:29:12;10.30;99.90
18191;DHT22;47004;51.366;12.348;2023-05-07T01:31:15;10.30;99.90
18191;DHT22;47004;51.366;12.348;2023-05-07T01:33:20;10.30;99.90
18191;DHT22;47004;51.366;12.348;2023-05-07T01:35:25;10.30;99.90
18191;DHT22;47004;51.366;12.348;2023-05-07T01:37:28;10.30;99.90
18191;DHT22;47004;51.366;12.348;2023-05-07T01:39:32;10.30;99.90
18191;DHT22;47004;51.366;12.348;2023-05-07T01:41:34;10.30;99.90
18191;DHT22;47004;51.366;12.348;2023-05-07T01:43:36;10.20;99.90
18191;DHT22;47004;51.366;12.348;2023-05-07T01:45:39;10.20;99.90
18191;DHT22;47004;51.366;12.348;2023-05-07T01:47:42;10.20;99.90
18191;DHT22;47004;51.366;12.348;2023-05-07T01:49:44;10.30;99.90
18191;DHT22;47004;51.366;12.348;2023-05-07T01:51:46;10.20;99.90
18191;DHT22;47004;51.366;12.348;2023-05-07T01:53:49;10.20;99.90
18191;DHT22;47004;51.366;12.348;2023-05-07T01:55:52;10.20;99.90
18191;DHT22;47004;51.366;12.348;2023-05-07T01:57:54;10.20;99.90
18191;DHT22;47004;51.366;12.348;2023-05-07T01:59:56;10.20;99.90
18191;DHT22;47004;51.366;12.348;2023-05-07T02:01:58;10.20;99.90
18191;DHT22;47004;51.366;12.348;2023-05-07T02:04:01;10.10;99.90
18191;DHT22;47004;51.366;12.348;2023-05-07T02:06:03;10.10;99.90
18191;DHT22;47004;51.366;12.348;2023-05-07T02:08:05;10.10;99.90
18191;DHT22;47004;51.366;12.348;2023-05-07T02:10:07;10.10;99.90
18191;DHT22;47004;51.366;12.348;2023-05-07T02:12:10;10.10;99.90
18191;DHT22;47004;51.366;12.348;2023-05-07T02:14:12;10.10;99.90
18191;DHT22;47004;51.366;12.348;2023-05-07T02:16:14;10.00;99.90
18191;DHT22;47004;51.366;12.348;2023-05-07T02:18:16;10.10;99.90
18191;DHT22;47004;51.366;12.348;2023-05-07T02:20:18;10.10;99.90
18191;DHT22;47004;51.366;12.348;2023-05-07T02:22:20;10.10;99.90
18191;DHT22;47004;51.366;12.348;2023-05-07T02:24:22;10.00;99.90
18191;DHT22;47004;51.366;12.348;2023-05-07T02:26:24;10.00;99.90
18191;DHT22;47004;51.366;12.348;2023-05-07T02:28:27;10.00;99.90
18191;DHT22;47004;51.366;12.348;2023-05-07T02:30:29;10.00;99.90
18191;DHT22;47004;51.366;12.348;2023-05-07T02:32:31;10.00;99.90
18191;DHT22;47004;51.366;12.348;2023-05-07T02:34:33;10.00;99.90
18191;DHT22;47004;51.366;12.348;2023-05-07T02:36:35;10.00;99.90
18191;DHT22;47004;51.366;12.348;2023-05-07T02:38:37;10.00;99.90
18191;DHT22;47004;51.366;12.348;2023-05-07T02:40:39;10.00;99.90
18191;DHT22;47004;51.366;12.348;2023-05-07T02:42:41;10.00;99.90
18191;DHT22;47004;51.366;12.348;2023-05-07T02:44:44;9.90;99.90
18191;DHT22;47004;51.366;12.348;2023-05-07T02:46:46;10.00;99.90
18191;DHT22;47004;51.366;12.348;2023-05-07T02:48:48;10.00;99.90
18191;DHT22;47004;51.366;12.348;2023-05-07T02:50:50;9.90;99.90
18191;DHT22;47004;51.366;12.348;2023-05-07T02:52:51;9.90;99.90
18191;DHT22;47004;51.366;12.348;2023-05-07T02:54:53;10.00;99.90
18191;DHT22;47004;51.366;12.348;2023-05-07T02:56:55;9.90;99.90
18191;DHT22;47004;51.366;12.348;2023-05-07T02:58:57;9.90;99.90
18191;DHT22;47004;51.366;12.348;2023-05-07T03:01:00;9.90;99.90
18191;DHT22;47004;51.366;12.348;2023-05-07T03:03:02;9.90;99.90
18191;DHT22;47004;51.366;12.348;2023-05-07T03:05:05;9.90;99.90
18191;DHT22;47004;51.366;12.348;2023-05-07T03:07:07;9.90;99.90
18191;DHT22;47004;51.366;12.348;2023-05-07T03:09:09;9.90;99.90
18191;DHT22;47004;51.366;12.348;2023-05-07T03:11:11;9.90;99.90
18191;DHT22;47004;51.366;12.348;2023-05-07T03:13:13;9.90;99.90
18191;DHT22;47004;51.366;12.348;2023-05-07T03:15:15;9.90;99.90
18191;DHT22;47004;51.366;12.348;2023-05-07T03:17:19;9.90;99.90
18191;DHT22;47004;51.366;12.348;2023-05-07T03:19:21;9.90;99.90
18191;DHT22;47004;51.366;12.348;2023-05-07T03:21:23;9.90;99.90
18191;DHT22;47004;51.366;12.348;2023-05-07T03:23:26;9.90;99.90
18191;DHT22;47004;51.366;12.348;2023-05-07T03:25:28;9.90;99.90
18191;DHT22;47004;51.366;12.348;2023-05-07T03:27:31;9.90;99.90
18191;DHT22;47004;51.366;12.348;2023-05-07T03:29:33;9.90;99.90
18191;DHT22;47004;51.366;12.348;2023-05-07T03:31:35;9.90;99.90
18191;DHT22;47004;51.366;12.348;2023-05-07T03:33:49;9.90;99.90
18191;DHT22;47004;51.366;12.348;2023-05-07T03:35:51;9.90;99.90
18191;DHT22;47004;51.366;12.348;2023-05-07T03:37:53;9.90;99.90
18191;DHT22;47004;51.366;12.348;2023-05-07T03:39:55;9.90;99.90
18191;DHT22;47004;51.366;12.348;2023-05-07T03:41:57;9.80;99.90
18191;DHT22;47004;51.366;12.348;2023-05-07T03:43:59;9.80;99.90
18191;DHT22;47004;51.366;12.348;2023-05-07T03:46:01;9.80;99.90
18191;DHT22;47004;51.366;12.348;2023-05-07T03:48:03;9.80;99.90
18191;DHT22;47004;51.366;12.348;2023-05-07T03:50:10;9.80;99.90
18191;DHT22;47004;51.366;12.348;2023-05-07T03:52:12;9.80;99.90
18191;DHT22;47004;51.366;12.348;2023-05-07T03:54:14;9.80;99.90
18191;DHT22;47004;51.366;12.348;2023-05-07T03:56:16;9.80;99.90
18191;DHT22;47004;51.366;12.348;2023-05-07T03:58:19;9.80;99.90
18191;DHT22;47004;51.366;12.348;2023-05-07T04:00:21;9.80;99.90
18191;DHT22;47004;51.366;12.348;2023-05-07T04:02:23;9.90;99.90
18191;DHT22;47004;51.366;12.348;2023-05-07T04:04:25;9.90;99.90
18191;DHT22;47004;51.366;12.348;2023-05-07T04:06:28;9.80;99.90
18191;DHT22;47004;51.366;12.348;2023-05-07T04:08:30;9.90;99.90
18191;DHT22;47004;51.366;12.348;2023-05-07T04:10:32;9.80;99.90
18191;DHT22;47004;51.366;12.348;2023-05-07T04:12:33;9.80;99.90
18191;DHT22;47004;51.366;12.348;2023-05-07T04:14:35;9.80;99.90
18191;DHT22;47004;51.366;12.348;2023-05-07T04:16:37;9.90;99.90
18191;DHT22;47004;51.366;12.348;2023-05-07T04:18:39;9.90;99.90
18191;DHT22;47004;51.366;12.348;2023-05-07T04:20:41;9.90;99.90
18191;DHT22;47004;51.366;12.348;2023-05-07T04:22:44;9.80;99.90
18191;DHT22;47004;51.366;12.348;2023-05-07T04:24:46;9.90;99.90
18191;DHT22;47004;51.366;12.348;2023-05-07T04:26:48;9.90;99.90
18191;DHT22;47004;51.366;12.348;2023-05-07T04:28:51;9.90;99.90
18191;DHT22;47004;51.366;12.348;2023-05-07T04:30:53;9.90;99.90
18191;DHT22;47004;51.366;12.348;2023-05-07T04:32:55;9.90;99.90
18191;DHT22;47004;51.366;12.348;2023-05-07T04:34:57;9.90;99.90
18191;DHT22;47004;51.366;12.348;2023-05-07T04:36:59;10.00;99.90
18191;DHT22;47004;51.366;12.348;2023-05-07T04:39:03;10.00;99.90
18191;DHT22;47004;51.366;12.348;2023-05-07T04:41:06;10.00;99.90
18191;DHT22;47004;51.366;12.348;2023-05-07T04:43:08;10.00;99.90
18191;DHT22;47004;51.366;12.348;2023-05-07T04:45:10;10.00;99.90
18191;DHT22;47004;51.366;12.348;2023-05-07T04:47:12;10.00;99.90
18191;DHT22;47004;51.366;12.348;2023-05-07T04:49:14;10.00;99.90
18191;DHT22;47004;51.366;12.348;2023-05-07T04:51:16;10.10;99.90
18191;DHT22;47004;51.366;12.348;2023-05-07T04:53:18;10.10;99.90
18191;DHT22;47004;51.366;12.348;2023-05-07T04:55:21;10.10;99.90
18191;DHT22;47004;51.366;12.348;2023-05-07T04:57:23;10.10;99.90
18191;DHT22;47004;51.366;12.348;2023-05-07T04:59:25;10.10;99.90
18191;DHT22;47004;51.366;12.348;2023-05-07T05:01:27;10.10;99.90
18191;DHT22;47004;51.366;12.348;2023-05-07T05:03:29;10.10;99.90
18191;DHT22;47004;51.366;12.348;2023-05-07T05:05:31;10.10;99.90
18191;DHT22;47004;51.366;12.348;2023-05-07T05:07:33;10.10;99.90
18191;DHT22;47004;51.366;12.348;2023-05-07T05:09:35;10.10;99.90
18191;DHT22;47004;51.366;12.348;2023-05-07T05:11:39;10.10;99.90
18191;DHT22;47004;51.366;12.348;2023-05-07T05:13:40;10.20;99.90
18191;DHT22;47004;51.366;12.348;2023-05-07T05:15:43;10.10;99.90
18191;DHT22;47004;51.366;12.348;2023-05-07T05:17:44;10.20;99.90
18191;DHT22;47004;51.366;12.348;2023-05-07T05:19:47;10.20;99.90
18191;DHT22;47004;51.366;12.348;2023-05-07T05:21:48;10.00;99.90
18191;DHT22;47004;51.366;12.348;2023-05-07T05:23:50;10.10;99.90
18191;DHT22;47004;51.366;12.348;2023-05-07T05:25:55;10.10;99.90
18191;DHT22;47004;51.366;12.348;2023-05-07T05:27:59;10.10;99.90
18191;DHT22;47004;51.366;12.348;2023-05-07T05:30:01;10.10;99.90
18191;DHT22;47004;51.366;12.348;2023-05-07T05:32:03;10.10;99.90
18191;DHT22;47004;51.366;12.348;2023-05-07T05:34:05;10.10;99.90
18191;DHT22;47004;51.366;12.348;2023-05-07T05:36:09;10.10;99.90
18191;DHT22;47004;51.366;12.348;2023-05-07T05:38:12;10.10;99.90
18191;DHT22;47004;51.366;12.348;2023-05-07T05:40:14;10.10;99.90
18191;DHT22;47004;51.366;12.348;2023-05-07T05:42:16;10.10;99.90
18191;DHT22;47004;51.366;12.348;2023-05-07T05:44:19;10.10;99.90
18191;DHT22;47004;51.366;12.348;2023-05-07T05:46:21;10.10;99.90
18191;DHT22;47004;51.366;12.348;2023-05-07T05:48:23;10.10;99.90
18191;DHT22;47004;51.366;12.348;2023-05-07T05:50:25;10.20;99.90
18191;DHT22;47004;51.366;12.348;2023-05-07T05:52:27;10.20;99.90
18191;DHT22;47004;51.366;12.348;2023-05-07T05:54:29;10.20;99.90
18191;DHT22;47004;51.366;12.348;2023-05-07T05:56:31;10.20;99.90
18191;DHT22;47004;51.366;12.348;2023-05-07T05:58:33;10.30;99.90
18191;DHT22;47004;51.366;12.348;2023-05-07T06:00:36;10.20;99.90
18191;DHT22;47004;51.366;12.348;2023-05-07T06:02:38;10.20;99.90
18191;DHT22;47004;51.366;12.348;2023-05-07T06:04:40;10.30;99.90
18191;DHT22;47004;51.366;12.348;2023-05-07T06:06:43;10.30;99.90
18191;DHT22;47004;51.366;12.348;2023-05-07T06:08:44;10.30;99.90
18191;DHT22;47004;51.366;12.348;2023-05-07T06:10:46;10.30;99.90
18191;DHT22;47004;51.366;12.348;2023-05-07T06:12:48;10.30;99.90
18191;DHT22;47004;51.366;12.348;2023-05-07T06:14:50;10.40;99.90
18191;DHT22;47004;51.366;12.348;2023-05-07T06:16:54;10.40;99.90
18191;DHT22;47004;51.366;12.348;2023-05-07T06:18:55;10.40;99.90
18191;DHT22;47004;51.366;12.348;2023-05-07T06:20:57;10.40;99.90
18191;DHT22;47004;51.366;12.348;2023-05-07T06:22:59;10.40;99.90
18191;DHT22;47004;51.366;12.348;2023-05-07T06:25:01;10.40;99.90
18191;DHT22;47004;51.366;12.348;2023-05-07T06:27:03;10.40;99.90
18191;DHT22;47004;51.366;12.348;2023-05-07T06:29:05;10.40;99.90
18191;DHT22;47004;51.366;12.348;2023-05-07T06:31:14;10.40;99.90
18191;DHT22;47004;51.366;12.348;2023-05-07T06:33:18;10.40;99.90
18191;DHT22;47004;51.366;12.348;2023-05-07T06:35:20;10.50;99.90
18191;DHT22;47004;51.366;12.348;2023-05-07T06:37:22;10.50;99.90
18191;DHT22;47004;51.366;12.348;2023-05-07T06:39:24;10.50;99.90
18191;DHT22;47004;51.366;12.348;2023-05-07T06:41:26;10.60;99.90
18191;DHT22;47004;51.366;12.348;2023-05-07T06:43:28;10.60;99.90
18191;DHT22;47004;51.366;12.348;2023-05-07T06:45:29;10.60;99.90
18191;DHT22;47004;51.366;12.348;2023-05-07T06:47:31;10.70;99.90
18191;DHT22;47004;51.366;12.348;2023-05-07T06:49:35;10.70;99.90
18191;DHT22;47004;51.366;12.348;2023-05-07T06:51:36;10.70;99.90
18191;DHT22;47004;51.366;12.348;2023-05-07T06:53:38;10.70;99.90
18191;DHT22;47004;51.366;12.348;2023-05-07T06:55:41;10.80;99.90
18191;DHT22;47004;51.366;12.348;2023-05-07T06:57:43;10.80;99.90
18191;DHT22;47004;51.366;12.348;2023-05-07T06:59:45;10.80;99.90
18191;DHT22;47004;51.366;12.348;2023-05-07T07:01:47;10.80;99.90
18191;DHT22;47004;51.366;12.348;2023-05-07T07:03:48;10.80;99.90
18191;DHT22;47004;51.366;12.348;2023-05-07T07:05:53;10.80;99.90
18191;DHT22;47004;51.366;12.348;2023-05-07T07:07:55;10.80;99.90
18191;DHT22;47004;51.366;12.348;2023-05-07T07:09:57;10.90;99.90
18191;DHT22;47004;51.366;12.348;2023-05-07T07:11:58;10.90;99.90
18191;DHT22;47004;51.366;12.348;2023-05-07T07:14:00;10.90;99.90
18191;DHT22;47004;51.366;12.348;2023-05-07T07:16:03;10.90;99.90
18191;DHT22;47004;51.366;12.348;2023-05-07T07:18:05;11.00;99.90
18191;DHT22;47004;51.366;12.348;2023-05-07T07:20:08;11.00;99.90
18191;DHT22;47004;51.366;12.348;2023-05-07T07:22:11;11.00;99.90
18191;DHT22;47004;51.366;12.348;2023-05-07T07:24:13;11.10;99.90
18191;DHT22;47004;51.366;12.348;2023-05-07T07:26:19;11.10;99.90
18191;DHT22;47004;51.366;12.348;2023-05-07T07:28:21;11.10;99.90
18191;DHT22;47004;51.366;12.348;2023-05-07T07:30:23;11.20;99.90
18191;DHT22;47004;51.366;12.348;2023-05-07T07:32:26;11.30;99.90
18191;DHT22;47004;51.366;12.348;2023-05-07T07:34:28;11.30;99.90
18191;DHT22;47004;51.366;12.348;2023-05-07T07:36:30;11.40;99.90
18191;DHT22;47004;51.366;12.348;2023-05-07T07:38:34;11.40;99.90
18191;DHT22;47004;51.366;12.348;2023-05-07T07:40:36;11.50;99.90
18191;DHT22;47004;51.366;12.348;2023-05-07T07:42:37;11.60;99.90
18191;DHT22;47004;51.366;12.348;2023-05-07T07:44:39;11.60;99.90
18191;DHT22;47004;51.366;12.348;2023-05-07T07:46:41;11.70;99.90
18191;DHT22;47004;51.366;12.348;2023-05-07T07:48:43;11.70;99.90
18191;DHT22;47004;51.366;12.348;2023-05-07T07:50:45;11.70;99.90
18191;DHT22;47004;51.366;12.348;2023-05-07T07:52:49;11.80;99.90
18191;DHT22;47004;51.366;12.348;2023-05-07T07:54:53;11.80;99.90
18191;DHT22;47004;51.366;12.348;2023-05-07T07:56:54;11.90;99.90
18191;DHT22;47004;51.366;12.348;2023-05-07T07:58:56;11.90;99.90
18191;DHT22;47004;51.366;12.348;2023-05-07T08:00:58;11.90;99.90
18191;DHT22;47004;51.366;12.348;2023-05-07T08:03:00;11.90;99.90
18191;DHT22;47004;51.366;12.348;2023-05-07T08:05:04;11.90;99.90
18191;DHT22;47004;51.366;12.348;2023-05-07T08:07:06;11.90;99.90
18191;DHT22;47004;51.366;12.348;2023-05-07T08:09:07;11.90;99.90
18191;DHT22;47004;51.366;12.348;2023-05-07T08:11:11;11.90;99.90
18191;DHT22;47004;51.366;12.348;2023-05-07T08:13:13;11.90;99.90
18191;DHT22;47004;51.366;12.348;2023-05-07T08:15:15;11.90;99.90
18191;DHT22;47004;51.366;12.348;2023-05-07T08:17:17;11.90;99.90
18191;DHT22;47004;51.366;12.348;2023-05-07T08:19:19;11.90;99.90
18191;DHT22;47004;51.366;12.348;2023-05-07T08:21:22;11.90;99.90
18191;DHT22;47004;51.366;12.348;2023-05-07T08:23:24;11.90;99.90
18191;DHT22;47004;51.366;12.348;2023-05-07T08:25:25;11.90;99.90
18191;DHT22;47004;51.366;12.348;2023-05-07T08:27:29;11.90;99.90
18191;DHT22;47004;51.366;12.348;2023-05-07T08:29:31;12.00;99.90
18191;DHT22;47004;51.366;12.348;2023-05-07T08:31:32;12.00;99.90
18191;DHT22;47004;51.366;12.348;2023-05-07T08:33:34;12.00;99.90
18191;DHT22;47004;51.366;12.348;2023-05-07T08:35:36;12.10;99.90
18191;DHT22;47004;51.366;12.348;2023-05-07T08:37:41;12.10;99.90
18191;DHT22;47004;51.366;12.348;2023-05-07T08:39:45;12.10;99.90
18191;DHT22;47004;51.366;12.348;2023-05-07T08:41:48;12.10;99.90
18191;DHT22;47004;51.366;12.348;2023-05-07T08:43:57;12.10;99.90
18191;DHT22;47004;51.366;12.348;2023-05-07T08:46:01;12.20;99.90
18191;DHT22;47004;51.366;12.348;2023-05-07T08:48:08;12.10;99.90
18191;DHT22;47004;51.366;12.348;2023-05-07T08:50:11;12.10;99.90
18191;DHT22;47004;51.366;12.348;2023-05-07T08:52:13;12.10;99.90
18191;DHT22;47004;51.366;12.348;2023-05-07T08:54:16;12.10;99.90
18191;DHT22;47004;51.366;12.348;2023-05-07T08:56:18;12.10;99.90
18191;DHT22;47004;51.366;12.348;2023-05-07T08:58:20;12.10;99.90
18191;DHT22;47004;51.366;12.348;2023-05-07T09:00:24;12.10;99.90
18191;DHT22;47004;51.366;12.348;2023-05-07T09:02:26;12.20;99.90
18191;DHT22;47004;51.366;12.348;2023-05-07T09:04:28;12.20;99.90
18191;DHT22;47004;51.366;12.348;2023-05-07T09:06:32;12.20;99.90
18191;DHT22;47004;51.366;12.348;2023-05-07T09:08:34;12.20;99.90
18191;DHT22;47004;51.366;12.348;2023-05-07T09:10:36;12.20;99.90
18191;DHT22;47004;51.366;12.348;2023-05-07T09:12:39;12.20;99.90
18191;DHT22;47004;51.366;12.348;2023-05-07T09:14:41;12.20;99.90
18191;DHT22;47004;51.366;12.348;2023-05-07T09:16:46;12.20;99.90
18191;DHT22;47004;51.366;12.348;2023-05-07T09:18:51;12.30;99.90
18191;DHT22;47004;51.366;12.348;2023-05-07T09:20:55;12.30;99.90
18191;DHT22;47004;51.366;12.348;2023-05-07T09:22:56;12.30;99.90
18191;DHT22;47004;51.366;12.348;2023-05-07T09:24:58;12.30;99.90
18191;DHT22;47004;51.366;12.348;2023-05-07T09:27:01;12.30;99.90
18191;DHT22;47004;51.366;12.348;2023-05-07T09:29:03;12.30;99.90
18191;DHT22;47004;51.366;12.348;2023-05-07T09:31:05;12.30;99.90
18191;DHT22;47004;51.366;12.348;2023-05-07T09:33:08;12.40;99.90
18191;DHT22;47004;51.366;12.348;2023-05-07T09:35:15;12.30;99.90
18191;DHT22;47004;51.366;12.348;2023-05-07T09:37:17;12.40;99.90
18191;DHT22;47004;51.366;12.348;2023-05-07T09:39:19;12.40;99.90
18191;DHT22;47004;51.366;12.348;2023-05-07T09:41:21;12.40;99.90
18191;DHT22;47004;51.366;12.348;2023-05-07T09:43:23;12.40;99.90
18191;DHT22;47004;51.366;12.348;2023-05-07T09:45:25;12.50;99.90
18191;DHT22;47004;51.366;12.348;2023-05-07T09:47:32;12.50;99.90
18191;DHT22;47004;51.366;12.348;2023-05-07T09:49:37;12.50;99.90
18191;DHT22;47004;51.366;12.348;2023-05-07T09:51:46;12.50;99.90
18191;DHT22;47004;51.366;12.348;2023-05-07T09:53:50;12.50;99.90
18191;DHT22;47004;51.366;12.348;2023-05-07T09:55:54;12.50;99.90
18191;DHT22;47004;51.366;12.348;2023-05-07T09:57:57;12.50;99.90
18191;DHT22;47004;51.366;12.348;2023-05-07T10:00:02;12.50;99.90
18191;DHT22;47004;51.366;12.348;2023-05-07T10:02:04;12.50;99.90
18191;DHT22;47004;51.366;12.348;2023-05-07T10:04:06;12.50;99.90
18191;DHT22;47004;51.366;12.348;2023-05-07T10:06:10;12.50;99.90
18191;DHT22;47004;51.366;12.348;2023-05-07T10:08:13;12.50;99.90
18191;DHT22;47004;51.366;12.348;2023-05-07T10:10:17;12.50;99.90
18191;DHT22;47004;51.366;12.348;2023-05-07T10:12:20;12.50;99.90
18191;DHT22;47004;51.366;12.348;2023-05-07T10:14:25;12.60;99.90
18191;DHT22;47004;51.366;12.348;2023-05-07T10:16:34;12.60;99.90
18191;DHT22;47004;51.366;12.348;2023-05-07T10:18:37;12.60;99.90
18191;DHT22;47004;51.366;12.348;2023-05-07T10:20:41;12.70;99.90
18191;DHT22;47004;51.366;12.348;2023-05-07T10:22:47;12.70;99.90
18191;DHT22;47004;51.366;12.348;2023-05-07T10:24:52;12.80;99.90
18191;DHT22;47004;51.366;12.348;2023-05-07T10:26:56;12.80;99.90
18191;DHT22;47004;51.366;12.348;2023-05-07T10:29:05;12.80;99.90
18191;DHT22;47004;51.366;12.348;2023-05-07T10:31:23;12.90;99.90
18191;DHT22;47004;51.366;12.348;2023-05-07T10:33:32;13.00;99.90
18191;DHT22;47004;51.366;12.348;2023-05-07T10:35:38;13.00;99.90
18191;DHT22;47004;51.366;12.348;2023-05-07T10:37:42;13.10;99.90
18191;DHT22;47004;51.366;12.348;2023-05-07T10:39:45;13.10;99.90
18191;DHT22;47004;51.366;12.348;2023-05-07T10:41:47;13.10;99.90
18191;DHT22;47004;51.366;12.348;2023-05-07T10:43:49;13.20;99.90
18191;DHT22;47004;51.366;12.348;2023-05-07T10:46:09;13.20;99.90
18191;DHT22;47004;51.366;12.348;2023-05-07T10:48:12;13.20;99.90
18191;DHT22;47004;51.366;12.348;2023-05-07T10:50:21;13.30;99.90
18191;DHT22;47004;51.366;12.348;2023-05-07T10:52:24;13.30;99.90
18191;DHT22;47004;51.366;12.348;2023-05-07T10:54:27;13.30;99.90
18191;DHT22;47004;51.366;12.348;2023-05-07T10:56:30;13.30;99.90
18191;DHT22;47004;51.366;12.348;2023-05-07T10:58:32;13.40;99.90
18191;DHT22;47004;51.366;12.348;2023-05-07T11:00:43;13.40;99.90
18191;DHT22;47004;51.366;12.348;2023-05-07T11:03:06;13.30;99.90
18191;DHT22;47004;51.366;12.348;2023-05-07T11:05:21;13.30;99.90
18191;DHT22;47004;51.366;12.348;2023-05-07T11:07:32;13.30;99.90
18191;DHT22;47004;51.366;12.348;2023-05-07T11:10:04;13.30;99.90
18191;DHT22;47004;51.366;12.348;2023-05-07T11:12:07;13.40;99.90
18191;DHT22;47004;51.366;12.348;2023-05-07T11:14:09;13.40;99.90
18191;DHT22;47004;51.366;12.348;2023-05-07T11:16:18;13.40;99.90
18191;DHT22;47004;51.366;12.348;2023-05-07T11:18:20;13.40;99.90
18191;DHT22;47004;51.366;12.348;2023-05-07T11:20:45;13.40;99.90
18191;DHT22;47004;51.366;12.348;2023-05-07T11:22:47;13.50;99.90
18191;DHT22;47004;51.366;12.348;2023-05-07T11:24:49;13.50;99.90
18191;DHT22;47004;51.366;12.348;2023-05-07T11:26:56;13.50;99.90
18191;DHT22;47004;51.366;12.348;2023-05-07T11:29:00;13.50;99.90
18191;DHT22;47004;51.366;12.348;2023-05-07T11:31:02;13.60;99.90
18191;DHT22;47004;51.366;12.348;2023-05-07T11:33:05;13.60;99.90
18191;DHT22;47004;51.366;12.348;2023-05-07T11:35:08;13.70;99.90
18191;DHT22;47004;51.366;12.348;2023-05-07T11:37:16;13.70;99.90
18191;DHT22;47004;51.366;12.348;2023-05-07T11:39:29;13.80;99.90
18191;DHT22;47004;51.366;12.348;2023-05-07T11:41:35;13.80;99.90
18191;DHT22;47004;51.366;12.348;2023-05-07T11:43:39;13.90;99.90
18191;DHT22;47004;51.366;12.348;2023-05-07T11:46:05;13.90;99.90
18191;DHT22;47004;51.366;12.348;2023-05-07T11:48:07;14.00;99.90
18191;DHT22;47004;51.366;12.348;2023-05-07T11:50:09;14.10;99.90
18191;DHT22;47004;51.366;12.348;2023-05-07T11:52:13;14.20;99.90
18191;DHT22;47004;51.366;12.348;2023-05-07T11:54:18;14.30;99.90
18191;DHT22;47004;51.366;12.348;2023-05-07T11:56:20;14.40;99.90
18191;DHT22;47004;51.366;12.348;2023-05-07T11:58:23;14.50;99.90
18191;DHT22;47004;51.366;12.348;2023-05-07T12:00:26;14.50;99.90
18191;DHT22;47004;51.366;12.348;2023-05-07T12:02:29;14.50;99.90
18191;DHT22;47004;51.366;12.348;2023-05-07T12:04:31;14.50;99.90
18191;DHT22;47004;51.366;12.348;2023-05-07T12:06:36;14.60;99.90
18191;DHT22;47004;51.366;12.348;2023-05-07T12:08:40;14.60;99.90
18191;DHT22;47004;51.366;12.348;2023-05-07T12:10:42;14.60;99.90
18191;DHT22;47004;51.366;12.348;2023-05-07T12:12:46;14.60;99.90
18191;DHT22;47004;51.366;12.348;2023-05-07T12:14:49;14.70;99.90
18191;DHT22;47004;51.366;12.348;2023-05-07T12:16:51;14.70;99.90
18191;DHT22;47004;51.366;12.348;2023-05-07T12:18:55;14.80;99.90
18191;DHT22;47004;51.366;12.348;2023-05-07T12:20:59;14.80;99.90
18191;DHT22;47004;51.366;12.348;2023-05-07T12:23:02;14.80;99.90
18191;DHT22;47004;51.366;12.348;2023-05-07T12:25:04;14.80;99.90
18191;DHT22;47004;51.366;12.348;2023-05-07T12:27:07;14.90;99.90
18191;DHT22;47004;51.366;12.348;2023-05-07T12:29:09;14.90;99.90
18191;DHT22;47004;51.366;12.348;2023-05-07T12:31:11;15.00;99.90
18191;DHT22;47004;51.366;12.348;2023-05-07T12:33:16;15.10;99.90
18191;DHT22;47004;51.366;12.348;2023-05-07T12:35:26;15.20;99.90
18191;DHT22;47004;51.366;12.348;2023-05-07T12:37:28;15.40;99.90
18191;DHT22;47004;51.366;12.348;2023-05-07T12:39:30;15.60;99.90
18191;DHT22;47004;51.366;12.348;2023-05-07T12:41:36;15.60;99.90
18191;DHT22;47004;51.366;12.348;2023-05-07T12:43:38;15.60;99.90
18191;DHT22;47004;51.366;12.348;2023-05-07T12:45:41;15.60;99.90
18191;DHT22;47004;51.366;12.348;2023-05-07T12:47:44;15.70;99.90